sensor_id;sensor_type;location;lat;lon;timestamp;P1;durP1;ratioP1;P2;durP2;ratioP2
15110;SDS011;7656;51.954;7.998;2023-01-16T00:01:19;2.23;;;0.90;;
15110;SDS011;7656;51.954;7.998;2023-01-16T00:05:42;1.07;;;0.63;;
15110;SDS011;7656;51.954;7.998;2023-01-16T00:10:04;1.73;;;0.80;;
15110;SDS011;7656;51.954;7.998;2023-01-16T00:14:28;1.77;;;0.63;;
15110;SDS011;7656;51.954;7.998;2023-01-16T00:18:50;1.17;;;0.73;;
15110;SDS011;7656;51.954;7.998;2023-01-16T00:23:12;1.93;;;0.80;;
15110;SDS011;7656;51.954;7.998;2023-01-16T00:27:33;1.83;;;0.83;;
15110;SDS011;7656;51.954;7.998;2023-01-16T00:31:55;3.03;;;0.63;;
15110;SDS011;7656;51.954;7.998;2023-01-16T00:36:16;1.73;;;0.90;;
15110;SDS011;7656;51.954;7.998;2023-01-16T00:40:37;1.50;;;0.77;;
15110;SDS011;7656;51.954;7.998;2023-01-16T00:44:58;2.10;;;0.80;;
15110;SDS011;7656;51.954;7.998;2023-01-16T00:49:19;1.20;;;0.70;;
15110;SDS011;7656;51.954;7.998;2023-01-16T00:53:40;2.20;;;0.77;;
15110;SDS011;7656;51.954;7.998;2023-01-16T00:58:04;1.70;;;1.10;;
15110;SDS011;7656;51.954;7.998;2023-01-16T01:02:25;1.10;;;1.00;;
15110;SDS011;7656;51.954;7.998;2023-01-16T01:06:47;2.43;;;0.70;;
15110;SDS011;7656;51.954;7.998;2023-01-16T01:11:11;2.07;;;0.90;;
15110;SDS011;7656;51.954;7.998;2023-01-16T01:15:34;3.00;;;1.10;;
15110;SDS011;7656;51.954;7.998;2023-01-16T01:19:55;2.20;;;0.67;;
15110;SDS011;7656;51.954;7.998;2023-01-16T01:24:16;1.20;;;0.70;;
15110;SDS011;7656;51.954;7.998;2023-01-16T01:28:37;1.90;;;0.93;;
15110;SDS011;7656;51.954;7.998;2023-01-16T01:32:59;2.60;;;0.73;;
15110;SDS011;7656;51.954;7.998;2023-01-16T01:37:20;1.20;;;0.80;;
15110;SDS011;7656;51.954;7.998;2023-01-16T01:41:41;1.13;;;0.50;;
15110;SDS011;7656;51.954;7.998;2023-01-16T01:46:02;2.40;;;0.77;;
15110;SDS011;7656;51.954;7.998;2023-01-16T01:50:57;0.37;;;0.37;;
15110;SDS011;7656;51.954;7.998;2023-01-16T01:55:16;0.80;;;0.50;;
15110;SDS011;7656;51.954;7.998;2023-01-16T01:59:40;1.07;;;0.53;;
15110;SDS011;7656;51.954;7.998;2023-01-16T02:04:08;1.17;;;0.80;;
15110;SDS011;7656;51.954;7.998;2023-01-16T02:08:34;0.70;;;0.50;;
15110;SDS011;7656;51.954;7.998;2023-01-16T02:12:57;0.90;;;0.23;;
15110;SDS011;7656;51.954;7.998;2023-01-16T02:17:20;1.00;;;0.70;;
15110;SDS011;7656;51.954;7.998;2023-01-16T02:31:48;0.60;;;0.33;;
15110;SDS011;7656;51.954;7.998;2023-01-16T02:36:36;0.40;;;0.40;;
15110;SDS011;7656;51.954;7.998;2023-01-16T02:41:26;2.37;;;0.70;;
15110;SDS011;7656;51.954;7.998;2023-01-16T02:55:36;2.07;;;0.77;;
15110;SDS011;7656;51.954;7.998;2023-01-16T03:00:06;1.47;;;0.77;;
15110;SDS011;7656;51.954;7.998;2023-01-16T03:09:03;0.43;;;0.40;;
15110;SDS011;7656;51.954;7.998;2023-01-16T03:14:01;0.40;;;0.40;;
15110;SDS011;7656;51.954;7.998;2023-01-16T03:28:13;1.00;;;0.83;;
15110;SDS011;7656;51.954;7.998;2023-01-16T03:32:58;1.07;;;0.30;;
15110;SDS011;7656;51.954;7.998;2023-01-16T03:37:31;0.50;;;0.50;;
15110;SDS011;7656;51.954;7.998;2023-01-16T03:42:14;0.60;;;0.60;;
15110;SDS011;7656;51.954;7.998;2023-01-16T03:46:43;0.57;;;0.40;;
15110;SDS011;7656;51.954;7.998;2023-01-16T03:51:09;0.80;;;0.67;;
15110;SDS011;7656;51.954;7.998;2023-01-16T03:55:48;1.03;;;0.50;;
15110;SDS011;7656;51.954;7.998;2023-01-16T04:00:19;1.23;;;0.70;;
15110;SDS011;7656;51.954;7.998;2023-01-16T04:04:49;1.27;;;1.10;;
15110;SDS011;7656;51.954;7.998;2023-01-16T04:14:10;2.17;;;0.60;;
15110;SDS011;7656;51.954;7.998;2023-01-16T04:18:35;1.57;;;0.60;;
15110;SDS011;7656;51.954;7.998;2023-01-16T04:22:56;0.73;;;0.30;;
15110;SDS011;7656;51.954;7.998;2023-01-16T04:27:18;0.67;;;0.67;;
15110;SDS011;7656;51.954;7.998;2023-01-16T04:31:40;2.23;;;0.50;;
15110;SDS011;7656;51.954;7.998;2023-01-16T04:36:01;1.10;;;0.70;;
15110;SDS011;7656;51.954;7.998;2023-01-16T04:40:23;0.53;;;0.53;;
15110;SDS011;7656;51.954;7.998;2023-01-16T04:44:44;1.40;;;0.50;;
15110;SDS011;7656;51.954;7.998;2023-01-16T04:49:05;1.13;;;0.93;;
15110;SDS011;7656;51.954;7.998;2023-01-16T04:53:26;1.20;;;0.53;;
15110;SDS011;7656;51.954;7.998;2023-01-16T04:57:47;2.23;;;0.60;;
15110;SDS011;7656;51.954;7.998;2023-01-16T05:02:09;0.40;;;0.40;;
15110;SDS011;7656;51.954;7.998;2023-01-16T05:06:30;0.67;;;0.50;;
15110;SDS011;7656;51.954;7.998;2023-01-16T05:10:52;1.63;;;0.63;;
15110;SDS011;7656;51.954;7.998;2023-01-16T05:15:14;0.30;;;0.30;;
15110;SDS011;7656;51.954;7.998;2023-01-16T05:19:35;0.50;;;0.50;;
15110;SDS011;7656;51.954;7.998;2023-01-16T05:23:56;0.37;;;0.33;;
15110;SDS011;7656;51.954;7.998;2023-01-16T05:28:17;0.83;;;0.43;;
15110;SDS011;7656;51.954;7.998;2023-01-16T05:32:38;1.00;;;0.40;;
15110;SDS011;7656;51.954;7.998;2023-01-16T05:36:59;0.50;;;0.40;;
15110;SDS011;7656;51.954;7.998;2023-01-16T05:41:21;0.67;;;0.33;;
15110;SDS011;7656;51.954;7.998;2023-01-16T05:45:42;0.60;;;0.60;;
15110;SDS011;7656;51.954;7.998;2023-01-16T05:50:03;0.50;;;0.50;;
15110;SDS011;7656;51.954;7.998;2023-01-16T05:54:25;1.20;;;1.10;;
15110;SDS011;7656;51.954;7.998;2023-01-16T05:58:46;2.87;;;0.90;;
15110;SDS011;7656;51.954;7.998;2023-01-16T06:03:07;0.77;;;0.77;;
15110;SDS011;7656;51.954;7.998;2023-01-16T06:07:29;0.40;;;0.40;;
15110;SDS011;7656;51.954;7.998;2023-01-16T06:11:50;0.40;;;0.40;;
15110;SDS011;7656;51.954;7.998;2023-01-16T06:16:11;0.87;;;0.40;;
15110;SDS011;7656;51.954;7.998;2023-01-16T06:20:32;1.50;;;0.40;;
15110;SDS011;7656;51.954;7.998;2023-01-16T06:24:53;0.37;;;0.37;;
15110;SDS011;7656;51.954;7.998;2023-01-16T06:29:14;0.40;;;0.40;;
15110;SDS011;7656;51.954;7.998;2023-01-16T06:33:35;3.17;;;1.00;;
15110;SDS011;7656;51.954;7.998;2023-01-16T06:37:56;2.80;;;0.70;;
15110;SDS011;7656;51.954;7.998;2023-01-16T06:42:17;0.80;;;0.70;;
15110;SDS011;7656;51.954;7.998;2023-01-16T06:46:40;0.63;;;0.63;;
15110;SDS011;7656;51.954;7.998;2023-01-16T06:51:01;1.97;;;1.03;;
15110;SDS011;7656;51.954;7.998;2023-01-16T06:55:23;1.83;;;1.00;;
15110;SDS011;7656;51.954;7.998;2023-01-16T06:59:44;2.27;;;0.97;;
15110;SDS011;7656;51.954;7.998;2023-01-16T07:04:05;0.50;;;0.50;;
15110;SDS011;7656;51.954;7.998;2023-01-16T07:08:27;2.20;;;1.00;;
15110;SDS011;7656;51.954;7.998;2023-01-16T07:12:48;2.10;;;0.60;;
15110;SDS011;7656;51.954;7.998;2023-01-16T07:17:12;1.63;;;0.80;;
15110;SDS011;7656;51.954;7.998;2023-01-16T07:21:53;0.60;;;0.50;;
15110;SDS011;7656;51.954;7.998;2023-01-16T07:26:33;1.67;;;1.20;;
15110;SDS011;7656;51.954;7.998;2023-01-16T07:30:57;1.00;;;0.70;;
15110;SDS011;7656;51.954;7.998;2023-01-16T07:35:18;2.23;;;0.97;;
15110;SDS011;7656;51.954;7.998;2023-01-16T07:39:39;0.53;;;0.53;;
15110;SDS011;7656;51.954;7.998;2023-01-16T07:44:00;1.13;;;0.83;;
15110;SDS011;7656;51.954;7.998;2023-01-16T07:48:22;3.33;;;1.13;;
15110;SDS011;7656;51.954;7.998;2023-01-16T07:52:43;3.23;;;0.70;;
15110;SDS011;7656;51.954;7.998;2023-01-16T07:57:06;1.67;;;0.80;;
15110;SDS011;7656;51.954;7.998;2023-01-16T08:01:27;0.83;;;0.70;;
15110;SDS011;7656;51.954;7.998;2023-01-16T08:05:48;2.33;;;0.87;;
15110;SDS011;7656;51.954;7.998;2023-01-16T08:10:10;0.27;;;0.27;;
15110;SDS011;7656;51.954;7.998;2023-01-16T08:14:31;2.47;;;1.20;;
15110;SDS011;7656;51.954;7.998;2023-01-16T08:18:52;0.97;;;0.87;;
15110;SDS011;7656;51.954;7.998;2023-01-16T08:23:13;1.30;;;0.73;;
15110;SDS011;7656;51.954;7.998;2023-01-16T08:27:34;1.93;;;1.10;;
15110;SDS011;7656;51.954;7.998;2023-01-16T08:31:55;0.90;;;0.90;;
15110;SDS011;7656;51.954;7.998;2023-01-16T08:36:16;2.47;;;0.50;;
15110;SDS011;7656;51.954;7.998;2023-01-16T08:40:40;2.17;;;0.87;;
15110;SDS011;7656;51.954;7.998;2023-01-16T08:45:01;0.47;;;0.47;;
15110;SDS011;7656;51.954;7.998;2023-01-16T08:49:41;1.23;;;0.80;;
15110;SDS011;7656;51.954;7.998;2023-01-16T08:54:21;1.10;;;0.73;;
15110;SDS011;7656;51.954;7.998;2023-01-16T08:58:42;0.50;;;0.50;;
15110;SDS011;7656;51.954;7.998;2023-01-16T09:03:03;1.60;;;0.93;;
15110;SDS011;7656;51.954;7.998;2023-01-16T09:07:24;0.40;;;0.40;;
15110;SDS011;7656;51.954;7.998;2023-01-16T09:11:46;1.23;;;0.50;;
15110;SDS011;7656;51.954;7.998;2023-01-16T09:16:32;0.73;;;0.73;;
15110;SDS011;7656;51.954;7.998;2023-01-16T09:20:53;0.70;;;0.70;;
15110;SDS011;7656;51.954;7.998;2023-01-16T09:25:14;0.97;;;0.83;;
15110;SDS011;7656;51.954;7.998;2023-01-16T09:29:35;0.57;;;0.57;;
15110;SDS011;7656;51.954;7.998;2023-01-16T09:33:57;0.80;;;0.80;;
15110;SDS011;7656;51.954;7.998;2023-01-16T09:38:18;1.60;;;1.00;;
15110;SDS011;7656;51.954;7.998;2023-01-16T09:47:43;0.50;;;0.30;;
15110;SDS011;7656;51.954;7.998;2023-01-16T09:52:11;0.90;;;0.40;;
15110;SDS011;7656;51.954;7.998;2023-01-16T09:56:56;0.63;;;0.63;;
15110;SDS011;7656;51.954;7.998;2023-01-16T10:01:41;1.43;;;0.67;;
15110;SDS011;7656;51.954;7.998;2023-01-16T10:10:59;0.87;;;0.73;;
15110;SDS011;7656;51.954;7.998;2023-01-16T10:15:52;0.60;;;0.60;;
15110;SDS011;7656;51.954;7.998;2023-01-16T10:30:23;2.57;;;0.93;;
15110;SDS011;7656;51.954;7.998;2023-01-16T10:39:38;3.03;;;1.20;;
15110;SDS011;7656;51.954;7.998;2023-01-16T10:43:59;1.63;;;0.70;;
15110;SDS011;7656;51.954;7.998;2023-01-16T10:48:41;3.03;;;1.17;;
15110;SDS011;7656;51.954;7.998;2023-01-16T10:53:21;0.90;;;0.90;;
15110;SDS011;7656;51.954;7.998;2023-01-16T10:57:53;2.17;;;0.87;;
15110;SDS011;7656;51.954;7.998;2023-01-16T11:02:25;2.53;;;1.40;;
15110;SDS011;7656;51.954;7.998;2023-01-16T11:07:00;3.93;;;1.30;;
15110;SDS011;7656;51.954;7.998;2023-01-16T11:11:35;2.63;;;1.40;;
15110;SDS011;7656;51.954;7.998;2023-01-16T11:16:17;1.50;;;0.80;;
15110;SDS011;7656;51.954;7.998;2023-01-16T11:21:23;2.57;;;0.70;;
15110;SDS011;7656;51.954;7.998;2023-01-16T11:25:50;1.10;;;0.30;;
15110;SDS011;7656;51.954;7.998;2023-01-16T11:30:18;0.83;;;0.60;;
15110;SDS011;7656;51.954;7.998;2023-01-16T11:34:43;1.70;;;0.50;;
15110;SDS011;7656;51.954;7.998;2023-01-16T11:39:15;0.30;;;0.30;;
15110;SDS011;7656;51.954;7.998;2023-01-16T11:43:41;0.30;;;0.30;;
15110;SDS011;7656;51.954;7.998;2023-01-16T11:48:21;0.50;;;0.50;;
15110;SDS011;7656;51.954;7.998;2023-01-16T11:52:45;0.20;;;0.20;;
15110;SDS011;7656;51.954;7.998;2023-01-16T11:57:17;0.63;;;0.50;;
15110;SDS011;7656;51.954;7.998;2023-01-16T12:07:22;0.50;;;0.50;;
15110;SDS011;7656;51.954;7.998;2023-01-16T12:26:34;1.80;;;0.40;;
15110;SDS011;7656;51.954;7.998;2023-01-16T12:40:51;0.30;;;0.20;;
15110;SDS011;7656;51.954;7.998;2023-01-16T12:45:57;0.30;;;0.30;;
15110;SDS011;7656;51.954;7.998;2023-01-16T12:55:22;0.20;;;0.20;;
15110;SDS011;7656;51.954;7.998;2023-01-16T13:00:23;0.37;;;0.37;;
15110;SDS011;7656;51.954;7.998;2023-01-16T13:05:02;0.10;;;0.10;;
15110;SDS011;7656;51.954;7.998;2023-01-16T13:14:11;0.20;;;0.20;;
15110;SDS011;7656;51.954;7.998;2023-01-16T13:18:35;0.43;;;0.43;;
15110;SDS011;7656;51.954;7.998;2023-01-16T13:23:11;0.77;;;0.33;;
15110;SDS011;7656;51.954;7.998;2023-01-16T13:27:40;0.70;;;0.40;;
15110;SDS011;7656;51.954;7.998;2023-01-16T13:32:27;0.30;;;0.30;;
15110;SDS011;7656;51.954;7.998;2023-01-16T13:37:03;0.30;;;0.30;;
15110;SDS011;7656;51.954;7.998;2023-01-16T13:41:48;0.40;;;0.40;;
15110;SDS011;7656;51.954;7.998;2023-01-16T13:46:12;0.20;;;0.20;;
15110;SDS011;7656;51.954;7.998;2023-01-16T13:50:34;0.37;;;0.37;;
15110;SDS011;7656;51.954;7.998;2023-01-16T13:54:57;0.30;;;0.30;;
15110;SDS011;7656;51.954;7.998;2023-01-16T13:59:55;0.33;;;0.27;;
15110;SDS011;7656;51.954;7.998;2023-01-16T14:08:48;0.40;;;0.40;;
15110;SDS011;7656;51.954;7.998;2023-01-16T14:22:19;0.83;;;0.43;;
15110;SDS011;7656;51.954;7.998;2023-01-16T14:26:45;0.10;;;0.10;;
15110;SDS011;7656;51.954;7.998;2023-01-16T14:31:23;0.30;;;0.30;;
15110;SDS011;7656;51.954;7.998;2023-01-16T14:35:50;0.20;;;0.20;;
15110;SDS011;7656;51.954;7.998;2023-01-16T14:40:19;0.40;;;0.40;;
15110;SDS011;7656;51.954;7.998;2023-01-16T14:49:44;0.50;;;0.50;;
15110;SDS011;7656;51.954;7.998;2023-01-16T14:54:46;0.50;;;0.50;;
15110;SDS011;7656;51.954;7.998;2023-01-16T14:59:33;0.40;;;0.40;;
15110;SDS011;7656;51.954;7.998;2023-01-16T15:03:56;0.30;;;0.30;;
15110;SDS011;7656;51.954;7.998;2023-01-16T15:08:21;0.50;;;0.50;;
15110;SDS011;7656;51.954;7.998;2023-01-16T15:13:11;0.23;;;0.23;;
15110;SDS011;7656;51.954;7.998;2023-01-16T15:17:38;0.43;;;0.43;;
15110;SDS011;7656;51.954;7.998;2023-01-16T15:22:42;0.50;;;0.50;;
15110;SDS011;7656;51.954;7.998;2023-01-16T15:27:11;0.30;;;0.30;;
15110;SDS011;7656;51.954;7.998;2023-01-16T15:31:40;0.40;;;0.30;;
15110;SDS011;7656;51.954;7.998;2023-01-16T15:40:47;0.97;;;0.80;;
15110;SDS011;7656;51.954;7.998;2023-01-16T15:49:54;0.60;;;0.60;;
15110;SDS011;7656;51.954;7.998;2023-01-16T15:54:32;0.70;;;0.40;;
15110;SDS011;7656;51.954;7.998;2023-01-16T15:58:53;0.87;;;0.57;;
15110;SDS011;7656;51.954;7.998;2023-01-16T16:03:16;0.47;;;0.47;;
15110;SDS011;7656;51.954;7.998;2023-01-16T16:07:41;0.83;;;0.60;;
15110;SDS011;7656;51.954;7.998;2023-01-16T16:12:03;2.53;;;1.13;;
15110;SDS011;7656;51.954;7.998;2023-01-16T16:16:25;0.73;;;0.73;;
15110;SDS011;7656;51.954;7.998;2023-01-16T16:21:05;1.30;;;0.67;;
15110;SDS011;7656;51.954;7.998;2023-01-16T16:25:44;0.77;;;0.70;;
15110;SDS011;7656;51.954;7.998;2023-01-16T16:30:14;0.60;;;0.53;;
15110;SDS011;7656;51.954;7.998;2023-01-16T16:34:51;0.60;;;0.60;;
15110;SDS011;7656;51.954;7.998;2023-01-16T16:43:57;1.00;;;0.90;;
15110;SDS011;7656;51.954;7.998;2023-01-16T16:48:20;0.90;;;0.90;;
15110;SDS011;7656;51.954;7.998;2023-01-16T16:52:46;0.80;;;0.80;;
15110;SDS011;7656;51.954;7.998;2023-01-16T16:57:08;0.90;;;0.90;;
15110;SDS011;7656;51.954;7.998;2023-01-16T17:01:30;1.10;;;1.03;;
15110;SDS011;7656;51.954;7.998;2023-01-16T17:05:51;0.77;;;0.77;;
15110;SDS011;7656;51.954;7.998;2023-01-16T17:10:14;1.00;;;1.00;;
15110;SDS011;7656;51.954;7.998;2023-01-16T17:14:38;1.10;;;0.97;;
15110;SDS011;7656;51.954;7.998;2023-01-16T17:19:05;0.70;;;0.70;;
15110;SDS011;7656;51.954;7.998;2023-01-16T17:23:34;1.33;;;1.10;;
15110;SDS011;7656;51.954;7.998;2023-01-16T17:27:55;0.80;;;0.80;;
15110;SDS011;7656;51.954;7.998;2023-01-16T17:32:26;1.33;;;0.90;;
15110;SDS011;7656;51.954;7.998;2023-01-16T17:36:52;1.00;;;1.00;;
15110;SDS011;7656;51.954;7.998;2023-01-16T17:41:15;1.40;;;1.07;;
15110;SDS011;7656;51.954;7.998;2023-01-16T17:45:51;0.87;;;0.87;;
15110;SDS011;7656;51.954;7.998;2023-01-16T17:50:15;1.57;;;1.00;;
15110;SDS011;7656;51.954;7.998;2023-01-16T17:54:43;1.40;;;1.30;;
15110;SDS011;7656;51.954;7.998;2023-01-16T17:59:23;1.50;;;1.40;;
15110;SDS011;7656;51.954;7.998;2023-01-16T18:03:48;1.50;;;1.40;;
15110;SDS011;7656;51.954;7.998;2023-01-16T18:08:30;1.50;;;1.40;;
15110;SDS011;7656;51.954;7.998;2023-01-16T18:12:52;3.27;;;1.67;;
15110;SDS011;7656;51.954;7.998;2023-01-16T18:17:32;1.87;;;1.00;;
15110;SDS011;7656;51.954;7.998;2023-01-16T18:21:53;1.40;;;1.30;;
15110;SDS011;7656;51.954;7.998;2023-01-16T18:26:20;1.40;;;1.30;;
15110;SDS011;7656;51.954;7.998;2023-01-16T18:30:41;1.20;;;1.10;;
15110;SDS011;7656;51.954;7.998;2023-01-16T18:35:03;2.17;;;1.60;;
15110;SDS011;7656;51.954;7.998;2023-01-16T18:39:26;1.77;;;1.20;;
15110;SDS011;7656;51.954;7.998;2023-01-16T18:44:06;1.00;;;1.00;;
15110;SDS011;7656;51.954;7.998;2023-01-16T18:48:47;0.63;;;0.63;;
15110;SDS011;7656;51.954;7.998;2023-01-16T18:58:11;0.80;;;0.80;;
15110;SDS011;7656;51.954;7.998;2023-01-16T19:02:54;1.10;;;1.00;;
15110;SDS011;7656;51.954;7.998;2023-01-16T19:07:20;1.33;;;1.23;;
15110;SDS011;7656;51.954;7.998;2023-01-16T19:11:47;1.30;;;1.00;;
15110;SDS011;7656;51.954;7.998;2023-01-16T19:16:08;1.30;;;1.20;;
15110;SDS011;7656;51.954;7.998;2023-01-16T19:20:48;1.73;;;1.40;;
15110;SDS011;7656;51.954;7.998;2023-01-16T19:25:09;0.67;;;0.67;;
15110;SDS011;7656;51.954;7.998;2023-01-16T19:29:30;0.90;;;0.90;;
15110;SDS011;7656;51.954;7.998;2023-01-16T19:33:52;1.17;;;0.80;;
15110;SDS011;7656;51.954;7.998;2023-01-16T19:38:16;1.03;;;1.03;;
15110;SDS011;7656;51.954;7.998;2023-01-16T19:42:37;1.17;;;1.10;;
15110;SDS011;7656;51.954;7.998;2023-01-16T19:47:16;0.90;;;0.90;;
15110;SDS011;7656;51.954;7.998;2023-01-16T19:51:37;1.40;;;1.30;;
15110;SDS011;7656;51.954;7.998;2023-01-16T19:55:59;1.10;;;1.07;;
15110;SDS011;7656;51.954;7.998;2023-01-16T20:00:21;1.30;;;1.20;;
15110;SDS011;7656;51.954;7.998;2023-01-16T20:04:42;1.10;;;1.00;;
15110;SDS011;7656;51.954;7.998;2023-01-16T20:09:03;0.77;;;0.77;;
15110;SDS011;7656;51.954;7.998;2023-01-16T20:13:25;1.20;;;1.07;;
15110;SDS011;7656;51.954;7.998;2023-01-16T20:17:46;1.50;;;1.40;;
15110;SDS011;7656;51.954;7.998;2023-01-16T20:22:10;1.60;;;1.50;;
15110;SDS011;7656;51.954;7.998;2023-01-16T20:26:31;1.67;;;1.57;;
15110;SDS011;7656;51.954;7.998;2023-01-16T20:30:52;2.07;;;1.87;;
15110;SDS011;7656;51.954;7.998;2023-01-16T20:35:18;1.80;;;1.70;;
15110;SDS011;7656;51.954;7.998;2023-01-16T20:39:39;2.27;;;2.07;;
15110;SDS011;7656;51.954;7.998;2023-01-16T20:44:01;2.33;;;2.00;;
15110;SDS011;7656;51.954;7.998;2023-01-16T20:48:42;2.40;;;2.20;;
15110;SDS011;7656;51.954;7.998;2023-01-16T20:53:03;2.10;;;2.00;;
15110;SDS011;7656;51.954;7.998;2023-01-16T20:57:24;2.20;;;2.03;;
15110;SDS011;7656;51.954;7.998;2023-01-16T21:01:47;2.43;;;2.23;;
15110;SDS011;7656;51.954;7.998;2023-01-16T21:06:08;3.17;;;2.87;;
15110;SDS011;7656;51.954;7.998;2023-01-16T21:10:29;3.00;;;2.70;;
15110;SDS011;7656;51.954;7.998;2023-01-16T21:14:51;3.77;;;3.33;;
15110;SDS011;7656;51.954;7.998;2023-01-16T21:19:12;4.23;;;3.27;;
15110;SDS011;7656;51.954;7.998;2023-01-16T21:23:51;3.23;;;2.93;;
15110;SDS011;7656;51.954;7.998;2023-01-16T21:28:12;3.60;;;3.30;;
15110;SDS011;7656;51.954;7.998;2023-01-16T21:32:33;4.13;;;3.70;;
15110;SDS011;7656;51.954;7.998;2023-01-16T21:36:55;4.10;;;3.70;;
15110;SDS011;7656;51.954;7.998;2023-01-16T21:41:16;5.53;;;4.17;;
15110;SDS011;7656;51.954;7.998;2023-01-16T21:45:37;5.77;;;4.50;;
15110;SDS011;7656;51.954;7.998;2023-01-16T21:50:17;5.53;;;4.43;;
15110;SDS011;7656;51.954;7.998;2023-01-16T21:54:38;5.47;;;4.60;;
15110;SDS011;7656;51.954;7.998;2023-01-16T21:58:59;6.27;;;5.50;;
15110;SDS011;7656;51.954;7.998;2023-01-16T22:03:21;6.73;;;5.20;;
15110;SDS011;7656;51.954;7.998;2023-01-16T22:07:44;6.07;;;5.10;;
15110;SDS011;7656;51.954;7.998;2023-01-16T22:12:05;8.17;;;6.03;;
15110;SDS011;7656;51.954;7.998;2023-01-16T22:16:45;6.13;;;5.17;;
15110;SDS011;7656;51.954;7.998;2023-01-16T22:21:25;7.87;;;5.77;;
15110;SDS011;7656;51.954;7.998;2023-01-16T22:25:56;7.53;;;5.40;;
15110;SDS011;7656;51.954;7.998;2023-01-16T22:30:17;7.40;;;5.93;;
15110;SDS011;7656;51.954;7.998;2023-01-16T22:34:39;7.10;;;5.80;;
15110;SDS011;7656;51.954;7.998;2023-01-16T22:39:00;6.50;;;5.60;;
15110;SDS011;7656;51.954;7.998;2023-01-16T22:43:21;6.80;;;5.80;;
15110;SDS011;7656;51.954;7.998;2023-01-16T22:48:00;6.90;;;5.80;;
15110;SDS011;7656;51.954;7.998;2023-01-16T22:52:21;6.10;;;5.47;;
15110;SDS011;7656;51.954;7.998;2023-01-16T22:56:43;5.57;;;4.57;;
15110;SDS011;7656;51.954;7.998;2023-01-16T23:05:55;6.40;;;4.80;;
15110;SDS011;7656;51.954;7.998;2023-01-16T23:10:16;6.50;;;4.97;;
15110;SDS011;7656;51.954;7.998;2023-01-16T23:14:39;6.90;;;5.17;;
15110;SDS011;7656;51.954;7.998;2023-01-16T23:19:01;6.70;;;5.03;;
15110;SDS011;7656;51.954;7.998;2023-01-16T23:23:24;6.30;;;4.43;;
15110;SDS011;7656;51.954;7.998;2023-01-16T23:27:46;4.90;;;3.83;;
15110;SDS011;7656;51.954;7.998;2023-01-16T23:32:07;4.63;;;4.10;;
15110;SDS011;7656;51.954;7.998;2023-01-16T23:36:28;5.00;;;3.73;;
15110;SDS011;7656;51.954;7.998;2023-01-16T23:40:50;4.67;;;3.63;;
15110;SDS011;7656;51.954;7.998;2023-01-16T23:45:11;4.30;;;3.63;;
15110;SDS011;7656;51.954;7.998;2023-01-16T23:49:37;4.30;;;3.50;;
15110;SDS011;7656;51.954;7.998;2023-01-16T23:54:00;5.03;;;4.00;;
15110;SDS011;7656;51.954;7.998;2023-01-16T23:58:21;4.27;;;3.30;;
